createdAt,value
2022-08-06T00:00:10.141Z,47.77
2022-08-06T00:02:40.217Z,48.27
2022-08-06T00:05:17.580Z,48.24
2022-08-06T00:07:48.364Z,48.18
2022-08-06T00:10:18.058Z,48.02
2022-08-06T00:12:48.384Z,47.76
2022-08-06T00:15:42.619Z,47.87
2022-08-06T00:18:07.869Z,47.84
2022-08-06T00:20:41.713Z,47.50
2022-08-06T00:23:16.451Z,47.48
2022-08-06T00:25:52.054Z,47.52
2022-08-06T00:28:31.491Z,47.56
2022-08-06T00:31:06.266Z,47.78
2022-08-06T00:33:50.327Z,47.76
2022-08-06T00:36:28.221Z,47.82
2022-08-06T00:39:00.334Z,47.78
2022-08-06T00:41:41.891Z,47.95
2022-08-06T00:44:14.419Z,48.03
2022-08-06T00:46:45.119Z,48.06
2022-08-06T00:49:13.613Z,47.87
2022-08-06T00:52:02.339Z,47.70
2022-08-06T00:54:35.698Z,47.95
2022-08-06T00:57:07.643Z,48.52
2022-08-06T00:59:39.860Z,49.18
2022-08-06T01:02:10.107Z,49.47
2022-08-06T01:04:38.784Z,49.83
2022-08-06T01:07:09.036Z,50.15
2022-08-06T01:09:46.102Z,50.67
2022-08-06T01:12:33.373Z,51.50
2022-08-06T01:15:16.244Z,51.99
2022-08-06T01:18:00.024Z,52.32
2022-08-06T01:21:58.939Z,53.21
2022-08-06T01:23:21.874Z,52.64
2022-08-06T01:26:09.032Z,53.13
2022-08-06T01:28:51.893Z,53.42
2022-08-06T01:31:31.937Z,53.82
2022-08-06T01:34:17.999Z,53.75
2022-08-06T01:36:50.568Z,54.08
2022-08-06T01:39:53.764Z,54.42
2022-08-06T01:42:13.388Z,54.77
2022-08-06T01:44:48.101Z,55.41
2022-08-06T01:47:21.212Z,55.95
2022-08-06T01:50:00.494Z,56.72
2022-08-06T01:52:40.778Z,56.83
2022-08-06T01:55:14.025Z,56.50
2022-08-06T01:58:08.053Z,56.12
2022-08-06T02:00:46.142Z,56.18
2022-08-06T02:03:24.091Z,56.13
2022-08-06T02:05:58.022Z,56.28
2022-08-06T02:08:36.509Z,56.27
2022-08-06T02:12:01.574Z,56.60
2022-08-06T02:14:01.365Z,56.96
2022-08-06T02:16:33.469Z,57.23
2022-08-06T02:19:10.414Z,57.58
2022-08-06T02:21:50.517Z,58.03
2022-08-06T02:24:24.266Z,58.20
2022-08-06T02:26:56.473Z,58.21
2022-08-06T02:29:27.040Z,58.13
2022-08-06T02:32:15.914Z,58.26
2022-08-06T02:34:44.033Z,58.67
2022-08-06T02:37:22.612Z,59.04
2022-08-06T02:39:57.165Z,59.14
2022-08-06T02:42:42.405Z,59.71
2022-08-06T02:45:58.202Z,60.40
2022-08-06T02:48:53.394Z,61.18
2022-08-06T02:52:10.933Z,62.54
2022-08-06T02:54:46.975Z,62.10
2022-08-06T02:57:48.524Z,63.09
2022-08-06T03:00:29.160Z,62.73
2022-08-06T03:03:01.440Z,62.27
2022-08-06T03:05:55.975Z,62.08
2022-08-06T03:08:26.337Z,61.96
2022-08-06T03:10:56.158Z,61.90
2022-08-06T03:13:29.638Z,61.87
2022-08-06T03:16:23.449Z,61.88
2022-08-06T03:19:54.539Z,61.88
2022-08-06T03:21:55.736Z,62.31
2022-08-06T03:24:26.866Z,62.56
2022-08-06T03:26:58.690Z,62.72
2022-08-06T03:29:28.524Z,62.94
2022-08-06T03:32:24.442Z,63.03
2022-08-06T03:34:47.818Z,63.05
2022-08-06T03:37:21.493Z,63.16
2022-08-06T03:40:00.961Z,63.12
2022-08-06T03:42:32.901Z,63.24
2022-08-06T03:45:06.367Z,63.95
2022-08-06T03:47:49.506Z,65.24
2022-08-06T03:50:37.769Z,64.88
2022-08-06T03:53:14.215Z,64.93
2022-08-06T03:55:45.893Z,65.82
2022-08-06T03:58:28.092Z,65.43
2022-08-06T04:01:08.888Z,65.90
2022-08-06T04:03:39.601Z,66.35
2022-08-06T04:06:16.145Z,66.20
2022-08-06T04:08:46.074Z,67.13
2022-08-06T04:12:14.572Z,66.31
2022-08-06T04:14:08.599Z,66.29
2022-08-06T04:16:38.152Z,66.22
2022-08-06T04:19:12.667Z,66.13
2022-08-06T04:22:57.065Z,65.36
2022-08-06T04:24:32.795Z,64.93
2022-08-06T04:27:09.857Z,65.28
2022-08-06T04:29:56.328Z,64.24
2022-08-06T04:32:28.833Z,63.92
2022-08-06T04:36:06.381Z,63.31
2022-08-06T04:37:48.068Z,63.57
2022-08-06T04:40:34.499Z,62.22
2022-08-06T04:43:08.557Z,60.43
2022-08-06T04:46:16.111Z,58.61
2022-08-06T04:48:34.244Z,56.37
2022-08-06T04:51:10.238Z,49.39
2022-08-06T04:53:56.968Z,41.39
2022-08-06T04:56:33.302Z,37.01
2022-08-06T04:59:07.428Z,34.17
2022-08-06T05:01:40.891Z,31.95
2022-08-06T05:04:26.322Z,30.51
2022-08-06T05:07:02.458Z,29.12
2022-08-06T05:09:42.349Z,28.85
2022-08-06T05:12:28.408Z,27.16
2022-08-06T05:15:21.275Z,25.27
2022-08-06T05:17:57.970Z,27.05
2022-08-06T05:20:33.026Z,26.36
2022-08-06T05:23:08.782Z,25.77
2022-08-06T05:25:53.982Z,29.80
2022-08-06T05:28:27.781Z,30.56
2022-08-06T05:30:57.314Z,33.99
2022-08-06T05:33:32.266Z,37.18
2022-08-06T05:36:11.877Z,39.39
2022-08-06T05:38:58.529Z,40.51
2022-08-06T05:41:33.200Z,42.67
2022-08-06T05:44:03.392Z,43.48
2022-08-06T05:46:37.032Z,43.68
2022-08-06T05:49:12.172Z,44.92
2022-08-06T05:52:10.693Z,44.21
2022-08-06T05:54:54.399Z,44.67
2022-08-06T05:57:42.244Z,44.79
2022-08-06T06:00:31.555Z,44.58
2022-08-06T06:03:06.132Z,45.33
2022-08-06T06:06:08.192Z,44.34
2022-08-06T06:08:29.432Z,44.72
2022-08-06T06:11:10.587Z,45.50
2022-08-06T06:13:58.429Z,44.68
2022-08-06T06:16:35.645Z,44.08
2022-08-06T06:19:15.390Z,44.23
2022-08-06T06:21:49.050Z,44.25
2022-08-06T06:24:27.260Z,43.15
2022-08-06T06:27:23.243Z,43.48
2022-08-06T06:30:11.059Z,44.39
2022-08-06T06:32:47.882Z,43.91
2022-08-06T06:35:33.981Z,43.90
2022-08-06T06:38:09.634Z,43.37
2022-08-06T06:41:19.909Z,43.10
2022-08-06T06:44:17.586Z,43.52
2022-08-06T06:47:36.442Z,43.78
2022-08-06T06:50:24.217Z,43.92
2022-08-06T06:52:56.325Z,43.35
2022-08-06T06:55:55.761Z,42.97
2022-08-06T06:58:49.978Z,42.43
2022-08-06T07:01:28.259Z,42.67
2022-08-06T07:04:00.036Z,42.15
2022-08-06T07:06:43.379Z,42.76
2022-08-06T07:09:39.146Z,42.65
2022-08-06T07:12:19.723Z,42.27
2022-08-06T07:14:58.254Z,41.57
2022-08-06T07:17:59.687Z,41.48
2022-08-06T07:20:26.023Z,42.10
2022-08-06T07:24:03.891Z,42.93
2022-08-06T07:25:54.621Z,43.53
2022-08-06T07:28:28.792Z,43.70
2022-08-06T07:31:04.201Z,42.48
2022-08-06T07:34:01.334Z,42.25
2022-08-06T07:36:31.865Z,41.87
2022-08-06T07:39:16.037Z,41.42
2022-08-06T07:42:07.070Z,40.76
2022-08-06T07:44:54.806Z,41.03
2022-08-06T07:47:54.356Z,40.62
2022-08-06T07:50:25.465Z,40.22
2022-08-06T07:52:56.869Z,39.95
2022-08-06T07:55:36.896Z,39.90
2022-08-06T07:58:07.387Z,39.46
2022-08-06T08:00:38.595Z,38.89
2022-08-06T08:03:55.711Z,39.13
2022-08-06T08:06:21.278Z,39.11
2022-08-06T08:08:53.258Z,37.55
2022-08-06T08:11:38.415Z,36.70
2022-08-06T08:14:15.295Z,33.11
2022-08-06T08:16:44.142Z,30.33
2022-08-06T08:19:34.846Z,28.46
2022-08-06T08:22:10.235Z,27.94
2022-08-06T08:24:54.575Z,25.49
2022-08-06T08:27:23.508Z,25.89
2022-08-06T08:29:56.761Z,26.05
2022-08-06T08:32:26.476Z,25.83
2022-08-06T08:34:57.409Z,24.63
2022-08-06T08:37:26.171Z,24.13
2022-08-06T08:39:55.669Z,23.16
2022-08-06T08:42:38.117Z,24.46
2022-08-06T08:45:09.110Z,25.84
2022-08-06T08:47:52.969Z,25.75
2022-08-06T08:50:24.626Z,25.50
2022-08-06T08:53:09.909Z,23.93
2022-08-06T08:57:01.947Z,23.41
2022-08-06T08:58:42.165Z,22.98
2022-08-06T09:01:51.800Z,23.52
2022-08-06T09:04:05.510Z,24.73
2022-08-06T09:06:39.695Z,25.58
2022-08-06T09:09:15.798Z,24.60
2022-08-06T09:12:05.668Z,24.26
2022-08-06T09:14:33.466Z,23.54
2022-08-06T09:17:04.835Z,23.79
2022-08-06T09:19:37.826Z,23.32
2022-08-06T09:22:09.317Z,24.59
2022-08-06T09:24:39.363Z,23.84
2022-08-06T09:27:46.984Z,23.91
2022-08-06T09:30:25.305Z,24.21
2022-08-06T09:32:57.513Z,24.77
2022-08-06T09:35:44.877Z,24.89
2022-08-06T09:38:17.540Z,24.89
2022-08-06T09:41:15.368Z,25.50
2022-08-06T09:44:02.802Z,27.33
2022-08-06T09:46:37.341Z,29.12
2022-08-06T09:49:48.422Z,29.47
2022-08-06T09:52:17.196Z,29.43
2022-08-06T09:54:52.978Z,30.16
2022-08-06T09:57:34.704Z,30.66
2022-08-06T10:00:14.351Z,30.60
2022-08-06T10:02:45.770Z,30.67
2022-08-06T10:05:20.583Z,30.54
2022-08-06T10:08:02.015Z,30.26
2022-08-06T10:10:51.251Z,30.53
2022-08-06T10:13:31.032Z,30.54
2022-08-06T10:16:20.620Z,30.50
2022-08-06T10:18:55.571Z,30.12
2022-08-06T10:21:42.461Z,30.04
2022-08-06T10:24:25.822Z,29.06
2022-08-06T10:27:14.171Z,29.25
2022-08-06T10:29:55.627Z,28.72
2022-08-06T10:32:50.193Z,28.89
2022-08-06T10:35:25.440Z,29.56
2022-08-06T10:38:03.291Z,29.13
2022-08-06T10:40:36.965Z,29.17
2022-08-06T10:43:08.252Z,29.12
2022-08-06T10:45:48.665Z,28.24
2022-08-06T10:48:59.209Z,28.61
2022-08-06T10:51:09.608Z,29.03
2022-08-06T10:54:02.130Z,29.80
2022-08-06T10:56:38.099Z,29.46
2022-08-06T10:59:15.465Z,29.30
2022-08-06T11:02:17.804Z,29.68
2022-08-06T11:05:17.926Z,30.05
2022-08-06T11:08:09.640Z,29.37
2022-08-06T11:10:58.069Z,29.44
2022-08-06T11:13:37.431Z,29.43
2022-08-06T11:16:29.240Z,29.37
2022-08-06T11:19:13.290Z,28.97
2022-08-06T11:22:02.114Z,28.79
2022-08-06T11:24:37.572Z,28.58
2022-08-06T11:27:50.463Z,29.19
2022-08-06T11:30:26.621Z,29.57
2022-08-06T11:32:55.235Z,29.42
2022-08-06T11:35:51.558Z,29.72
2022-08-06T11:38:50.926Z,29.47
2022-08-06T11:41:44.634Z,29.54
2022-08-06T11:44:16.299Z,29.46
2022-08-06T11:46:50.157Z,30.02
2022-08-06T11:49:46.799Z,29.98
2022-08-06T11:52:39.345Z,30.42
2022-08-06T11:55:22.904Z,29.53
2022-08-06T11:58:17.016Z,29.38
2022-08-06T12:01:03.154Z,29.51
2022-08-06T12:03:52.659Z,29.76
2022-08-06T12:06:29.332Z,29.58
2022-08-06T12:09:39.516Z,30.35
2022-08-06T12:12:26.911Z,30.82
2022-08-06T12:14:57.225Z,30.82
2022-08-06T12:17:31.213Z,30.72
2022-08-06T12:20:23.797Z,30.63
2022-08-06T12:23:05.434Z,30.63
2022-08-06T12:25:46.773Z,30.59
2022-08-06T12:28:18.485Z,30.73
2022-08-06T12:30:53.476Z,30.67
2022-08-06T12:33:24.836Z,30.97
2022-08-06T12:35:56.380Z,30.93
2022-08-06T12:38:28.598Z,30.55
2022-08-06T12:41:10.920Z,30.75
2022-08-06T12:43:57.314Z,30.82
2022-08-06T12:46:29.442Z,32.21
2022-08-06T12:49:01.682Z,31.23
2022-08-06T12:51:32.375Z,30.73
2022-08-06T12:54:04.331Z,30.97
2022-08-06T12:56:37.602Z,31.52
2022-08-06T12:59:16.041Z,32.10
2022-08-06T13:02:08.892Z,32.15
2022-08-06T13:04:46.562Z,32.75
2022-08-06T13:07:16.823Z,32.44
2022-08-06T13:10:32.765Z,32.33
2022-08-06T13:14:03.618Z,32.71
2022-08-06T13:15:31.830Z,33.19
2022-08-06T13:18:41.389Z,33.59
2022-08-06T13:21:23.391Z,34.70
2022-08-06T13:23:55.403Z,35.84
2022-08-06T13:26:27.600Z,36.13
2022-08-06T13:30:30.987Z,36.25
2022-08-06T13:32:03.926Z,36.59
2022-08-06T13:34:54.760Z,36.99
2022-08-06T13:37:57.745Z,36.79
2022-08-06T13:40:47.496Z,37.37
2022-08-06T13:43:40.086Z,37.34
2022-08-06T13:46:20.038Z,37.07
2022-08-06T13:49:01.290Z,37.54
2022-08-06T13:51:34.416Z,37.53
2022-08-06T13:54:14.370Z,37.87
2022-08-06T13:56:52.288Z,38.10
2022-08-06T13:59:40.214Z,38.46
2022-08-06T14:02:11.820Z,38.66
2022-08-06T14:04:41.120Z,38.88
2022-08-06T14:07:19.213Z,39.13
2022-08-06T14:09:58.436Z,39.30
2022-08-06T14:12:39.206Z,39.31
2022-08-06T14:15:13.109Z,39.42
2022-08-06T14:17:45.562Z,39.61
2022-08-06T14:20:19.529Z,39.18
2022-08-06T14:22:55.135Z,39.22
2022-08-06T14:25:28.490Z,39.21
2022-08-06T14:27:56.961Z,39.10
2022-08-06T14:30:33.111Z,39.11
2022-08-06T14:33:18.815Z,39.27
2022-08-06T14:35:52.659Z,39.50
2022-08-06T14:38:32.320Z,39.64
2022-08-06T14:41:50.282Z,39.82
2022-08-06T14:44:29.865Z,39.16
2022-08-06T14:46:59.388Z,38.96
2022-08-06T14:49:33.509Z,39.27
2022-08-06T14:52:20.950Z,39.85
2022-08-06T14:54:55.129Z,40.03
2022-08-06T14:57:41.256Z,40.40
2022-08-06T15:00:13.131Z,40.49
2022-08-06T15:02:51.773Z,40.34
2022-08-06T15:05:42.326Z,40.34
2022-08-06T15:08:08.861Z,40.68
2022-08-06T15:10:37.769Z,40.58
2022-08-06T15:13:06.472Z,40.89
2022-08-06T15:15:36.696Z,40.67
2022-08-06T15:18:54.485Z,40.71
2022-08-06T15:21:10.080Z,40.48
2022-08-06T15:23:53.253Z,40.70
2022-08-06T15:26:42.081Z,40.66
2022-08-06T15:29:15.761Z,41.09
2022-08-06T15:31:45.837Z,41.52
2022-08-06T15:34:20.122Z,41.28
2022-08-06T15:36:59.460Z,41.34
2022-08-06T15:39:52.116Z,41.79
2022-08-06T15:42:24.132Z,42.08
2022-08-06T15:44:54.989Z,42.11
2022-08-06T15:47:31.587Z,42.17
2022-08-06T15:50:05.148Z,42.32
2022-08-06T15:52:37.253Z,42.88
2022-08-06T15:55:15.551Z,42.82
2022-08-06T15:58:04.368Z,42.77
2022-08-06T16:00:37.404Z,42.65
2022-08-06T16:03:07.886Z,42.28
2022-08-06T16:06:12.660Z,42.28
2022-08-06T16:08:34.197Z,42.47
2022-08-06T16:11:08.641Z,42.79
2022-08-06T16:13:38.864Z,43.08
2022-08-06T16:16:08.440Z,42.94
2022-08-06T16:18:49.227Z,42.98
2022-08-06T16:21:20.767Z,43.22
2022-08-06T16:23:55.147Z,43.14
2022-08-06T16:26:39.057Z,43.05
2022-08-06T16:29:10.358Z,43.31
2022-08-06T16:31:48.135Z,43.36
2022-08-06T16:34:25.146Z,43.22
2022-08-06T16:37:00.046Z,43.40
2022-08-06T16:39:35.954Z,43.39
2022-08-06T16:42:07.102Z,43.14
2022-08-06T16:47:27.271Z,43.22
2022-08-06T16:50:18.875Z,43.44
2022-08-06T16:54:08.016Z,43.65
2022-08-06T16:58:33.061Z,43.93
2022-08-06T17:02:14.742Z,44.29
2022-08-06T17:03:50.740Z,44.44
2022-08-06T17:06:26.912Z,44.62
2022-08-06T17:08:55.106Z,44.69
2022-08-06T17:11:45.450Z,44.97
2022-08-06T17:14:14.175Z,45.12
2022-08-06T17:16:45.347Z,45.23
2022-08-06T17:19:17.550Z,45.29
2022-08-06T17:24:38.071Z,45.84
2022-08-06T17:27:09.063Z,45.99
2022-08-06T17:29:46.929Z,46.20
2022-08-06T17:32:29.882Z,46.53
2022-08-06T17:35:12.439Z,46.58
2022-08-06T17:37:46.065Z,46.73
2022-08-06T17:40:19.566Z,47.06
2022-08-06T17:43:12.332Z,47.35
2022-08-06T17:46:02.473Z,47.47
2022-08-06T17:48:40.599Z,47.64
2022-08-06T17:51:10.029Z,48.06
2022-08-06T17:53:55.200Z,48.29
2022-08-06T17:56:30.207Z,48.31
2022-08-06T17:59:17.878Z,48.59
2022-08-06T18:01:50.454Z,48.91
2022-08-06T18:04:28.862Z,49.27
2022-08-06T18:07:00.306Z,49.34
2022-08-06T18:10:08.784Z,49.73
2022-08-06T18:12:33.333Z,49.94
2022-08-06T18:15:01.853Z,49.94
2022-08-06T18:17:59.808Z,50.21
2022-08-06T18:20:32.934Z,50.37
2022-08-06T18:23:21.315Z,50.55
2022-08-06T18:25:59.966Z,50.59
2022-08-06T18:28:39.954Z,50.90
2022-08-06T18:31:19.802Z,51.00
2022-08-06T18:33:54.004Z,51.37
2022-08-06T18:36:33.133Z,51.20
2022-08-06T18:39:13.362Z,51.58
2022-08-06T18:41:57.416Z,51.70
2022-08-06T18:44:27.185Z,51.82
2022-08-06T18:47:03.515Z,52.13
2022-08-06T18:49:50.977Z,51.87
2022-08-06T18:52:23.023Z,52.22
2022-08-06T18:54:56.214Z,52.02
2022-08-06T18:57:37.875Z,52.27
2022-08-06T19:00:21.112Z,52.25
2022-08-06T19:02:53.658Z,52.29
2022-08-06T19:05:28.083Z,52.49
2022-08-06T19:07:59.566Z,52.76
2022-08-06T19:10:29.313Z,52.91
2022-08-06T19:12:59.544Z,52.94
2022-08-06T19:15:45.963Z,52.86
2022-08-06T19:18:24.267Z,53.03
2022-08-06T19:20:53.645Z,52.88
2022-08-06T19:24:02.416Z,52.95
2022-08-06T19:26:13.097Z,53.06
2022-08-06T19:28:49.908Z,53.29
2022-08-06T19:31:41.473Z,53.11
2022-08-06T19:34:16.143Z,53.20
2022-08-06T19:36:48.160Z,53.59
2022-08-06T19:39:53.749Z,53.49
2022-08-06T19:42:32.466Z,53.59
2022-08-06T19:45:04.464Z,53.75
2022-08-06T19:47:47.887Z,53.99
2022-08-06T19:50:19.514Z,54.07
2022-08-06T19:52:48.903Z,54.18
2022-08-06T19:56:08.139Z,54.27
2022-08-06T19:58:26.230Z,54.50
2022-08-06T20:01:31.309Z,54.64
2022-08-06T20:03:57.887Z,54.88
2022-08-06T20:06:29.475Z,54.98
2022-08-06T20:08:58.410Z,55.30
2022-08-06T20:12:03.186Z,55.32
2022-08-06T20:16:44.158Z,55.57
2022-08-06T20:19:12.480Z,55.64
2022-08-06T20:21:42.874Z,55.98
2022-08-06T20:24:16.978Z,55.95
2022-08-06T20:26:59.206Z,55.96
2022-08-06T20:29:34.679Z,56.35
2022-08-06T20:32:17.767Z,56.58
2022-08-06T20:34:46.619Z,56.40
2022-08-06T20:37:16.547Z,56.49
2022-08-06T20:39:48.429Z,56.73
2022-08-06T20:42:18.275Z,57.30
2022-08-06T20:44:52.433Z,57.38
2022-08-06T20:47:45.772Z,57.25
2022-08-06T20:50:11.864Z,57.34
2022-08-06T20:52:40.567Z,57.54
2022-08-06T20:55:13.903Z,57.75
2022-08-06T20:57:47.822Z,57.72
2022-08-06T21:00:24.264Z,57.83
2022-08-06T21:03:28.051Z,58.03
2022-08-06T21:05:50.375Z,58.08
2022-08-06T21:08:27.019Z,58.09
2022-08-06T21:11:00.402Z,58.14
2022-08-06T21:13:35.865Z,58.25
2022-08-06T21:16:29.074Z,58.54
2022-08-06T21:19:06.789Z,58.76
2022-08-06T21:21:39.001Z,58.85
2022-08-06T21:24:07.672Z,58.98
2022-08-06T21:26:37.451Z,59.08
2022-08-06T21:29:41.920Z,59.35
2022-08-06T21:31:57.759Z,59.12
2022-08-06T21:34:30.413Z,59.52
2022-08-06T21:36:59.867Z,59.61
2022-08-06T21:39:44.129Z,59.93
2022-08-06T21:42:18.062Z,59.93
2022-08-06T21:44:47.461Z,60.10
2022-08-06T21:47:19.615Z,60.00
2022-08-06T21:50:19.867Z,60.15
2022-08-06T21:52:54.456Z,60.30
2022-08-06T21:56:37.034Z,60.48
2022-08-06T21:58:11.391Z,60.47
2022-08-06T22:00:44.760Z,60.66
2022-08-06T22:04:37.774Z,60.90
2022-08-06T22:06:20.522Z,60.86
2022-08-06T22:08:54.814Z,61.05
2022-08-06T22:12:36.511Z,61.36
2022-08-06T22:14:16.246Z,61.41
2022-08-06T22:16:48.091Z,61.62
2022-08-06T22:19:17.644Z,61.62
2022-08-06T22:21:50.853Z,61.66
2022-08-06T22:24:22.935Z,61.77
2022-08-06T22:26:56.589Z,62.26
2022-08-06T22:29:29.634Z,62.15
2022-08-06T22:31:59.836Z,62.34
2022-08-06T22:34:36.231Z,62.20
2022-08-06T22:37:14.510Z,62.28
2022-08-06T22:39:47.068Z,62.39
2022-08-06T22:42:56.313Z,62.45
2022-08-06T22:45:46.881Z,62.63
2022-08-06T22:48:03.463Z,62.55
2022-08-06T22:50:33.677Z,63.03
2022-08-06T22:54:27.510Z,62.87
2022-08-06T22:55:51.365Z,62.93
2022-08-06T22:59:06.342Z,63.12
2022-08-06T23:01:09.140Z,63.07
2022-08-06T23:03:55.343Z,62.94
2022-08-06T23:06:26.748Z,63.24
2022-08-06T23:09:00.107Z,63.27
2022-08-06T23:11:29.133Z,63.54
2022-08-06T23:13:57.067Z,63.44
2022-08-06T23:16:28.843Z,63.53
2022-08-06T23:18:57.226Z,63.84
2022-08-06T23:21:56.532Z,63.68
2022-08-06T23:24:33.358Z,63.82
2022-08-06T23:27:07.110Z,64.13
2022-08-06T23:30:09.985Z,64.35
2022-08-06T23:32:35.830Z,64.60
2022-08-06T23:35:36.041Z,64.42
2022-08-06T23:38:32.458Z,64.61
2022-08-06T23:40:50.125Z,64.65
2022-08-06T23:43:19.659Z,64.77
2022-08-06T23:45:48.548Z,64.93
2022-08-06T23:48:16.934Z,64.99
2022-08-06T23:50:50.375Z,64.89
2022-08-06T23:54:08.444Z,64.93
2022-08-06T23:56:15.921Z,65.17
2022-08-06T23:58:47.025Z,65.12
